createdAt,value
2023-04-20T00:04:29.658Z,101990.88
2023-04-20T00:14:34.044Z,101985.81
2023-04-20T00:24:37.576Z,101970.25
2023-04-20T00:34:41.941Z,101947.78
2023-04-20T00:44:45.004Z,101942.75
2023-04-20T00:54:50.107Z,101921.41
2023-04-20T01:04:53.159Z,101899.31
2023-04-20T01:14:57.544Z,101890.78
2023-04-20T01:25:01.939Z,101869.81
2023-04-20T01:35:05.434Z,101860.09
2023-04-20T01:45:10.665Z,101847.69
2023-04-20T01:55:13.572Z,101832.56
2023-04-20T02:05:18.072Z,101816.66
2023-04-20T02:15:21.109Z,101797.25
2023-04-20T02:25:28.329Z,101785.97
2023-04-20T02:35:31.448Z,101769.69
2023-04-20T02:45:36.417Z,101769.69
2023-04-20T02:55:39.293Z,101764.22
2023-04-20T03:05:56.786Z,101758.03
2023-04-20T03:16:00.853Z,101737.13
2023-04-20T03:26:14.392Z,101724.41
2023-04-20T03:36:35.835Z,101728.72
2023-04-20T03:46:41.116Z,101709.84
2023-04-20T03:56:44.706Z,101704.50
2023-04-20T04:06:50.273Z,101701.84
2023-04-20T04:16:53.394Z,101684.47
2023-04-20T04:26:59.579Z,101674.84
2023-04-20T04:37:04.531Z,101639.63
2023-04-20T04:47:19.963Z,101636.94
2023-04-20T04:57:23.005Z,101629.56
2023-04-20T05:07:27.356Z,101633.00
2023-04-20T05:17:30.558Z,101630.66
2023-04-20T05:27:35.560Z,101629.06
2023-04-20T05:37:38.571Z,101630.97
2023-04-20T05:47:42.927Z,101618.94
2023-04-20T05:57:46.239Z,101616.16
2023-04-20T06:07:50.522Z,101620.34
2023-04-20T06:17:53.658Z,101609.44
2023-04-20T06:27:58.044Z,101608.47
2023-04-20T06:38:02.551Z,101601.53
2023-04-20T06:48:17.117Z,101591.69
2023-04-20T06:58:30.527Z,101593.94
2023-04-20T07:08:34.970Z,101575.38
2023-04-20T07:18:38.112Z,101577.03
2023-04-20T07:28:42.562Z,101596.38
2023-04-20T07:38:45.577Z,101594.09
2023-04-20T07:48:50.201Z,101578.84
2023-04-20T07:58:53.216Z,101590.97
2023-04-20T08:08:57.582Z,101590.22
2023-04-20T08:19:01.851Z,101582.13
2023-04-20T08:29:06.918Z,101564.00
2023-04-20T08:39:13.454Z,101554.41
2023-04-20T08:49:19.761Z,101542.63
2023-04-20T08:59:23.101Z,101538.50
2023-04-20T09:09:27.543Z,101526.44
2023-04-20T09:19:31.589Z,101538.16
2023-04-20T09:29:35.953Z,101529.88
2023-04-20T09:39:44.588Z,101527.81
2023-04-20T09:49:49.236Z,101526.75
2023-04-20T09:59:53.436Z,101509.56
2023-04-20T10:10:10.298Z,101498.97
2023-04-20T10:20:21.288Z,101489.91
2023-04-20T10:30:27.673Z,101497.13
2023-04-20T10:40:30.627Z,101477.69
2023-04-20T10:50:35.041Z,101479.63
2023-04-20T11:00:38.126Z,101477.53
2023-04-20T11:10:43.745Z,101465.78
2023-04-20T11:20:53.497Z,101465.19
2023-04-20T11:30:57.915Z,101456.13
2023-04-20T11:41:04.856Z,101430.69
2023-04-20T11:51:09.255Z,101422.22
2023-04-20T12:01:13.457Z,101420.22
2023-04-20T12:11:17.919Z,101438.56
2023-04-20T12:21:20.914Z,101430.28
2023-04-20T12:31:26.606Z,101415.13
2023-04-20T12:41:29.849Z,101411.81
2023-04-20T12:51:34.616Z,101417.00
2023-04-20T13:01:38.002Z,101398.44
2023-04-20T13:11:42.854Z,101383.72
2023-04-20T13:21:45.789Z,101391.22
2023-04-20T13:31:50.428Z,101378.91
2023-04-20T13:41:53.464Z,101380.66
2023-04-20T13:51:57.840Z,101372.66
2023-04-20T14:02:00.871Z,101369.81
2023-04-20T14:12:05.571Z,101360.06
2023-04-20T14:22:08.522Z,101358.47
2023-04-20T14:32:14.031Z,101339.91
2023-04-20T14:42:17.112Z,101342.38
2023-04-20T14:52:21.564Z,101333.50
2023-04-20T15:02:24.764Z,101345.69
2023-04-20T15:12:30.343Z,101333.41
2023-04-20T15:22:33.887Z,101324.28
2023-04-20T15:32:38.982Z,101321.81
2023-04-20T15:42:42.828Z,101311.59
2023-04-20T15:52:49.996Z,101312.97
2023-04-20T16:02:54.304Z,101309.28
2023-04-20T16:12:59.007Z,101309.50
2023-04-20T16:23:02.028Z,101306.13
2023-04-20T16:33:06.562Z,101304.50
2023-04-20T16:43:09.728Z,101309.31
2023-04-20T16:53:14.148Z,101305.41
2023-04-20T17:03:17.385Z,101309.38
2023-04-20T17:13:24.977Z,101312.53
2023-04-20T17:23:35.903Z,101323.19
2023-04-20T17:33:44.943Z,101316.72
2023-04-20T17:43:52.083Z,101320.63
2023-04-20T17:53:59.482Z,101331.31
2023-04-20T18:04:06.871Z,101339.81
2023-04-20T18:14:21.161Z,101349.59
2023-04-20T18:24:24.353Z,101353.59
2023-04-20T18:34:34.957Z,101356.59
2023-04-20T18:44:38.351Z,101357.06
2023-04-20T18:54:42.830Z,101364.41
2023-04-20T19:04:45.816Z,101350.28
2023-04-20T19:14:50.244Z,101357.63
2023-04-20T19:24:53.219Z,101344.16
2023-04-20T19:34:59.309Z,101343.69
2023-04-20T19:45:02.483Z,101350.03
2023-04-20T19:55:08.100Z,101351.94
2023-04-20T20:05:11.383Z,101350.59
2023-04-20T20:15:15.868Z,101350.22
2023-04-20T20:25:19.893Z,101356.44
2023-04-20T20:35:24.316Z,101339.63
2023-04-20T20:45:27.826Z,101335.75
2023-04-20T20:55:32.194Z,101335.00
2023-04-20T21:05:35.898Z,101326.13
2023-04-20T21:15:40.677Z,101318.81
2023-04-20T21:25:43.636Z,101331.94
2023-04-20T21:35:48.015Z,101328.44
2023-04-20T21:45:51.616Z,101362.69
2023-04-20T21:55:56.127Z,101343.78
2023-04-20T22:06:00.104Z,101353.16
2023-04-20T22:16:05.081Z,101357.31
2023-04-20T22:26:08.090Z,101345.06
2023-04-20T22:36:13.033Z,101332.41
2023-04-20T22:46:16.104Z,101320.03
2023-04-20T22:56:20.404Z,101299.22
2023-04-20T23:06:23.414Z,101292.69
2023-04-20T23:16:28.154Z,101243.97
2023-04-20T23:26:31.206Z,101220.69
2023-04-20T23:36:35.568Z,101218.81
2023-04-20T23:46:39.663Z,101233.91
2023-04-20T23:56:44.029Z,101216.94
